Time;durP1;ratioP1;P1;durP2;ratioP2;P2;SDS_P1;SDS_P2;PMS_P1;PMS_P2;Temp;Humidity;BMP_temperature;BMP_pressure;BME280_temperature;BME280_humidity;BME280_pressure;Samples;Min_cycle;Max_cycle;Signal;HPM_P1;HPM_P2
2024/03/30 00:01:10;;;;;;;4.90;4.57;;;11.60;1.00;;;;;;5043262;28;20447;-83
2024/03/30 00:03:36;;;;;;;5.40;4.30;;;11.60;1.00;;;;;;5028377;28;20468;-82
2024/03/30 00:06:05;;;;;;;4.70;4.30;;;11.50;1.00;;;;;;5040503;28;21230;-83
2024/03/30 00:08:31;;;;;;;4.80;4.50;;;11.50;1.00;;;;;;5040580;28;20476;-84
2024/03/30 00:11:00;;;;;;;5.23;4.73;;;11.50;1.00;;;;;;5040505;28;20451;-83
2024/03/30 00:13:27;;;;;;;5.40;4.90;;;11.50;1.00;;;;;;5039361;28;20484;-83
2024/03/30 00:15:54;;;;;;;5.13;4.73;;;11.40;1.00;;;;;;5039198;28;20488;-82
2024/03/30 00:18:21;;;;;;;4.83;4.53;;;11.40;1.00;;;;;;5038873;28;20492;-83
2024/03/30 00:20:48;;;;;;;5.03;4.60;;;11.50;1.00;;;;;;5040515;28;20444;-83
2024/03/30 00:23:16;;;;;;;6.40;4.90;;;11.40;1.00;;;;;;5039027;28;20479;-82
2024/03/30 00:25:52;;;;;;;5.90;5.23;;;11.40;1.00;;;;;;5038741;28;20553;-84
2024/03/30 00:28:19;;;;;;;4.13;3.90;;;11.30;1.00;;;;;;5037305;28;20455;-84
2024/03/30 00:30:46;;;;;;;4.47;4.17;;;11.30;1.00;;;;;;5039083;28;20938;-85
2024/03/30 00:33:12;;;;;;;4.60;3.90;;;11.40;1.00;;;;;;5022234;28;20433;-85
2024/03/30 00:35:40;;;;;;;7.40;4.20;;;11.30;1.00;;;;;;5041906;28;20455;-84
2024/03/30 00:38:07;;;;;;;4.40;4.00;;;11.30;1.00;;;;;;5040353;28;20572;-84
2024/03/30 00:40:35;;;;;;;8.30;3.93;;;11.30;1.00;;;;;;5049387;28;20473;-85
2024/03/30 00:43:02;;;;;;;4.87;4.17;;;11.40;1.00;;;;;;5051822;28;20483;-86
2024/03/30 00:45:30;;;;;;;4.77;3.40;;;11.40;1.00;;;;;;5049322;28;20462;-84
2024/03/30 00:47:56;;;;;;;6.20;4.00;;;11.40;1.00;;;;;;5047771;28;20475;-85
2024/03/30 00:50:24;;;;;;;6.27;4.17;;;11.40;1.00;;;;;;5052829;28;20485;-83
2024/03/30 00:52:50;;;;;;;13.73;4.30;;;11.30;1.00;;;;;;5046481;28;20436;-85
2024/03/30 00:55:17;;;;;;;5.83;3.70;;;11.30;1.00;;;;;;5046359;28;20502;-85
2024/03/30 00:57:45;;;;;;;6.73;3.40;;;11.40;1.00;;;;;;5044145;28;20485;-83
2024/03/30 01:00:14;;;;;;;6.20;3.20;;;11.40;99.90;;;;;;5045335;28;20453;-85
2024/03/30 01:02:40;;;;;;;7.80;3.87;;;11.40;99.90;;;;;;5042086;28;20497;-82
2024/03/30 01:05:08;;;;;;;9.27;4.30;;;11.40;99.90;;;;;;5042642;28;20495;-85
2024/03/30 01:07:34;;;;;;;14.93;4.70;;;11.20;99.90;;;;;;5048121;28;20527;-83
2024/03/30 01:10:04;;;;;;;8.67;4.23;;;11.30;99.90;;;;;;5049140;28;21413;-83
2024/03/30 01:12:31;;;;;;;10.90;4.53;;;11.30;99.90;;;;;;5031087;28;20451;-84
2024/03/30 01:15:01;;;;;;;13.30;4.67;;;11.20;99.90;;;;;;5031454;28;20458;-84
2024/03/30 01:17:27;;;;;;;6.43;4.03;;;11.20;99.90;;;;;;5063966;28;20484;-83
2024/03/30 01:19:55;;;;;;;14.73;4.60;;;11.30;99.90;;;;;;5045914;28;20468;-85
2024/03/30 01:22:22;;;;;;;8.87;4.17;;;11.20;99.90;;;;;;5044856;28;20492;-83
2024/03/30 01:24:50;;;;;;;10.80;3.67;;;11.20;99.90;;;;;;5045825;28;20873;-85
2024/03/30 01:27:18;;;;;;;15.07;4.00;;;11.30;99.90;;;;;;5042988;28;20467;-84
2024/03/30 01:29:46;;;;;;;13.32;5.25;;;11.30;99.90;;;;;;5047214;28;21020;-83
2024/03/30 01:32:14;;;;;;;9.37;3.90;;;11.30;99.90;;;;;;5044336;28;20203;-83
2024/03/30 01:34:42;;;;;;;13.73;3.50;;;11.30;99.90;;;;;;5045938;28;20440;-81
2024/03/30 01:37:08;;;;;;;16.90;4.07;;;11.40;99.90;;;;;;5045063;28;21143;-83
2024/03/30 01:39:35;;;;;;;11.90;4.30;;;11.30;99.90;;;;;;5040465;28;20617;-84
2024/03/30 01:42:01;;;;;;;14.20;5.00;;;11.30;99.90;;;;;;5044920;28;20989;-84
2024/03/30 01:44:29;;;;;;;29.40;5.57;;;11.30;99.90;;;;;;5047242;28;20458;-86
2024/03/30 01:46:55;;;;;;;9.40;4.57;;;11.30;99.90;;;;;;5046314;28;20496;-83
2024/03/30 01:49:24;;;;;;;14.17;5.37;;;11.30;99.90;;;;;;5042934;28;21039;-83
2024/03/30 01:51:51;;;;;;;16.33;6.07;;;11.40;99.90;;;;;;5026229;28;20472;-83
2024/03/30 01:54:20;;;;;;;16.60;5.50;;;11.30;99.90;;;;;;5046603;28;20443;-84
2024/03/30 01:56:48;;;;;;;14.83;4.57;;;11.30;99.90;;;;;;5042846;28;20546;-84
2024/03/30 01:59:15;;;;;;;17.80;5.93;;;11.30;99.90;;;;;;5045820;28;20531;-84
2024/03/30 02:01:46;;;;;;;14.13;5.43;;;11.30;99.90;;;;;;5045096;28;20441;-84
2024/03/30 02:04:14;;;;;;;15.50;5.47;;;11.20;99.90;;;;;;5046256;28;20473;-84
2024/03/30 02:06:42;;;;;;;22.17;6.70;;;11.20;99.90;;;;;;5044940;28;21030;-85
2024/03/30 02:09:11;;;;;;;18.20;5.30;;;11.30;99.90;;;;;;5043034;28;20494;-84
2024/03/30 02:11:38;;;;;;;19.80;5.40;;;11.20;99.90;;;;;;5044802;28;20477;-84
2024/03/30 02:14:06;;;;;;;15.50;5.80;;;11.20;99.90;;;;;;5042617;28;21267;-84
2024/03/30 02:16:32;;;;;;;19.97;5.30;;;11.20;99.90;;;;;;5041179;28;20464;-84
2024/03/30 02:18:59;;;;;;;24.03;5.97;;;11.10;99.90;;;;;;5029877;28;20520;-84
2024/03/30 02:21:26;;;;;;;27.13;5.37;;;11.10;99.90;;;;;;5048468;28;20552;-83
2024/03/30 02:23:54;;;;;;;19.30;5.07;;;11.10;99.90;;;;;;5045047;28;20477;-84
2024/03/30 02:26:20;;;;;;;22.90;5.80;;;11.20;99.90;;;;;;5045001;28;20599;-85
2024/03/30 02:28:49;;;;;;;21.70;5.97;;;11.10;99.90;;;;;;5040099;28;20491;-85
2024/03/30 02:31:15;;;;;;;17.43;6.13;;;11.10;99.90;;;;;;5027164;28;20463;-85
2024/03/30 02:33:43;;;;;;;14.40;5.93;;;11.10;99.90;;;;;;5044192;28;21243;-85
2024/03/30 02:36:10;;;;;;;13.83;4.80;;;11.10;99.90;;;;;;5043372;28;20453;-85
2024/03/30 02:38:37;;;;;;;11.47;5.80;;;11.10;99.90;;;;;;5045833;28;20509;-86
2024/03/30 02:41:07;;;;;;;16.60;6.20;;;11.00;99.90;;;;;;5045154;28;20542;-85
2024/03/30 02:43:34;;;;;;;16.13;5.43;;;11.00;99.90;;;;;;5040393;28;20460;-85
2024/03/30 02:46:01;;;;;;;9.90;4.80;;;10.90;99.90;;;;;;5048531;28;20466;-84
2024/03/30 02:48:28;;;;;;;16.40;5.10;;;10.90;99.90;;;;;;5041080;28;20454;-83
2024/03/30 02:50:54;;;;;;;14.37;5.77;;;10.90;99.90;;;;;;5040153;28;20466;-85
2024/03/30 02:53:21;;;;;;;13.97;5.60;;;10.80;99.90;;;;;;5047415;28;20455;-84
2024/03/30 02:55:47;;;;;;;13.33;4.70;;;10.80;99.90;;;;;;5044771;28;20510;-85
2024/03/30 02:58:16;;;;;;;12.60;4.60;;;10.80;99.90;;;;;;5044685;28;20520;-85
2024/03/30 03:00:42;;;;;;;11.27;4.97;;;10.80;99.90;;;;;;5043244;28;20899;-85
2024/03/30 03:03:09;;;;;;;12.37;4.87;;;10.80;99.90;;;;;;5043489;28;20500;-87
2024/03/30 03:05:35;;;;;;;12.30;4.70;;;10.90;99.90;;;;;;5045003;28;20549;-85
2024/03/30 03:08:03;;;;;;;14.83;4.70;;;10.80;99.90;;;;;;5046422;28;20839;-85
2024/03/30 03:10:29;;;;;;;16.87;4.67;;;10.80;99.90;;;;;;5038630;28;20973;-84
2024/03/30 03:12:56;;;;;;;11.63;4.33;;;10.90;99.90;;;;;;5047673;28;20789;-85
2024/03/30 03:15:24;;;;;;;12.33;6.13;;;10.80;99.90;;;;;;5038628;28;20454;-85
2024/03/30 03:17:51;;;;;;;15.53;4.87;;;10.80;99.90;;;;;;5040785;28;21584;-85
2024/03/30 03:20:18;;;;;;;14.70;5.60;;;10.80;99.90;;;;;;5043956;28;20594;-84
2024/03/30 03:22:45;;;;;;;14.40;5.70;;;10.80;99.90;;;;;;5044102;28;20488;-85
2024/03/30 03:25:11;;;;;;;12.97;4.47;;;10.90;99.90;;;;;;5042883;28;21320;-85
2024/03/30 03:27:38;;;;;;;23.23;6.83;;;10.90;99.90;;;;;;5042674;28;20479;-85
2024/03/30 03:30:06;;;;;;;23.30;6.27;;;10.90;99.90;;;;;;5043886;28;20844;-84
2024/03/30 03:32:34;;;;;;;16.97;5.60;;;10.90;99.90;;;;;;5046107;28;20467;-84
2024/03/30 03:35:04;;;;;;;23.27;6.60;;;10.90;99.90;;;;;;5028979;28;20450;-85
2024/03/30 03:37:31;;;;;;;17.50;4.40;;;11.00;99.90;;;;;;5045545;28;20499;-83
2024/03/30 03:39:58;;;;;;;20.33;4.87;;;11.00;99.90;;;;;;5025072;28;20487;-84
2024/03/30 03:42:25;;;;;;;13.27;5.70;;;11.00;99.90;;;;;;5028596;28;20566;-84
2024/03/30 03:44:52;;;;;;;16.60;5.50;;;11.00;99.90;;;;;;5043083;28;20828;-85
2024/03/30 03:47:19;;;;;;;18.30;5.13;;;11.00;99.90;;;;;;5046505;28;20464;-85
2024/03/30 03:49:47;;;;;;;20.33;5.70;;;11.10;99.90;;;;;;5039657;28;20454;-84
2024/03/30 03:52:14;;;;;;;17.07;5.17;;;11.10;99.90;;;;;;5044870;28;20460;-85
2024/03/30 03:54:40;;;;;;;14.03;5.00;;;11.10;99.90;;;;;;5042295;28;20460;-85
2024/03/30 03:57:07;;;;;;;24.07;5.47;;;11.00;99.90;;;;;;5044193;28;20476;-85
2024/03/30 03:59:34;;;;;;;20.23;5.67;;;11.10;99.90;;;;;;5042487;28;20551;-84
2024/03/30 04:02:01;;;;;;;24.17;5.40;;;11.10;99.90;;;;;;5047844;28;20517;-82
2024/03/30 04:04:27;;;;;;;20.90;5.23;;;11.10;99.90;;;;;;5029990;28;20467;-83
2024/03/30 04:06:58;;;;;;;13.43;4.50;;;11.30;99.90;;;;;;5044305;28;20476;-83
2024/03/30 04:09:25;;;;;;;25.20;5.77;;;11.40;99.90;;;;;;5039401;28;20456;-85
2024/03/30 04:11:52;;;;;;;20.20;5.00;;;11.50;99.90;;;;;;5045202;28;20523;-84
2024/03/30 04:14:18;;;;;;;10.20;4.53;;;11.60;99.90;;;;;;5026321;28;20444;-85
2024/03/30 04:16:46;;;;;;;20.20;4.47;;;11.70;99.90;;;;;;5045366;28;20473;-84
2024/03/30 04:19:17;;;;;;;13.27;4.67;;;11.70;99.90;;;;;;5043923;28;20964;-86
2024/03/30 04:21:45;;;;;;;17.87;5.23;;;11.50;99.90;;;;;;5045221;28;20458;-84
2024/03/30 04:24:13;;;;;;;15.70;4.23;;;11.40;99.90;;;;;;5043531;28;20463;-86
2024/03/30 04:26:40;;;;;;;19.30;6.27;;;11.30;99.90;;;;;;5043823;28;20476;-88
2024/03/30 04:29:06;;;;;;;16.73;4.27;;;11.40;99.90;;;;;;5028412;28;20543;-88
2024/03/30 04:31:34;;;;;;;14.00;4.80;;;11.20;99.90;;;;;;5044941;28;20482;-86
2024/03/30 04:34:00;;;;;;;10.20;4.10;;;11.10;99.90;;;;;;5043599;28;20444;-84
2024/03/30 04:36:27;;;;;;;12.00;4.43;;;11.00;99.90;;;;;;5042688;28;20618;-84
2024/03/30 04:38:55;;;;;;;11.37;4.63;;;11.00;99.90;;;;;;5042265;28;20453;-85
2024/03/30 04:41:23;;;;;;;14.73;4.40;;;10.90;99.90;;;;;;5046260;28;20451;-84
2024/03/30 04:43:50;;;;;;;10.17;3.90;;;10.80;99.90;;;;;;5045130;28;20550;-86
2024/03/30 04:46:16;;;;;;;10.83;4.23;;;10.80;99.90;;;;;;5043973;28;20451;-85
2024/03/30 04:48:47;;;;;;;10.67;4.20;;;10.60;99.90;;;;;;5049158;28;20464;-85
2024/03/30 04:51:13;;;;;;;11.60;4.67;;;10.70;99.90;;;;;;5044579;28;20494;-85
2024/03/30 04:53:41;;;;;;;8.63;4.37;;;10.60;99.90;;;;;;5049038;28;20807;-85
2024/03/30 04:56:07;;;;;;;12.60;4.37;;;10.60;99.90;;;;;;5027178;28;20460;-84
2024/03/30 04:58:36;;;;;;;9.00;3.70;;;10.60;99.90;;;;;;5028770;28;20484;-84
2024/03/30 05:01:04;;;;;;;15.40;3.90;;;10.60;99.90;;;;;;5045998;28;20484;-87
2024/03/30 05:03:32;;;;;;;21.03;4.33;;;10.60;99.90;;;;;;5041999;28;20487;-84
2024/03/30 05:05:58;;;;;;;9.37;3.90;;;10.60;99.90;;;;;;5028120;28;20538;-85
2024/03/30 05:08:25;;;;;;;10.93;4.27;;;10.60;99.90;;;;;;5049045;28;20536;-83
2024/03/30 05:10:52;;;;;;;9.00;5.30;;;10.60;99.90;;;;;;5041236;28;20478;-84
2024/03/30 05:13:19;;;;;;;7.53;6.13;;;10.50;99.90;;;;;;5049523;28;20458;-84
2024/03/30 05:15:47;;;;;;;8.23;5.50;;;10.50;99.90;;;;;;5049177;28;20449;-85
2024/03/30 05:18:16;;;;;;;8.00;4.20;;;10.50;99.90;;;;;;5046355;28;20480;-83
2024/03/30 05:20:49;;;;;;;13.27;4.47;;;10.40;99.90;;;;;;5033686;28;20446;-84
2024/03/30 05:23:18;;;;;;;14.13;4.33;;;10.50;99.90;;;;;;5046045;28;20478;-84
2024/03/30 05:25:44;;;;;;;12.83;5.30;;;10.40;99.90;;;;;;5043645;28;20451;-84
2024/03/30 05:28:12;;;;;;;7.70;4.30;;;10.50;99.90;;;;;;5045587;28;20528;-84
2024/03/30 05:30:39;;;;;;;16.17;5.30;;;10.50;99.90;;;;;;5028238;28;20453;-83
2024/03/30 05:33:08;;;;;;;14.87;5.10;;;10.60;99.90;;;;;;5045406;28;20452;-84
2024/03/30 05:35:35;;;;;;;17.83;4.63;;;10.70;99.90;;;;;;5043122;28;20806;-83
2024/03/30 05:38:02;;;;;;;18.33;4.30;;;10.70;99.90;;;;;;5047535;28;20481;-84
2024/03/30 05:40:32;;;;;;;14.07;4.70;;;10.60;99.90;;;;;;5040003;28;20440;-84
2024/03/30 05:42:58;;;;;;;8.83;4.50;;;10.70;99.90;;;;;;5043751;28;20485;-84
2024/03/30 05:45:26;;;;;;;16.50;4.83;;;10.80;99.90;;;;;;5043921;28;20540;-84
2024/03/30 05:47:52;;;;;;;11.10;3.70;;;10.90;99.90;;;;;;5044139;28;20476;-85
2024/03/30 05:50:21;;;;;;;10.53;3.90;;;11.10;99.90;;;;;;5047014;28;20466;-85
2024/03/30 05:52:48;;;;;;;14.03;4.33;;;11.10;99.90;;;;;;5044364;28;20450;-85
2024/03/30 05:55:15;;;;;;;13.07;3.73;;;11.10;99.90;;;;;;5042228;28;20459;-85
2024/03/30 05:57:42;;;;;;;14.13;5.30;;;11.10;99.90;;;;;;5028016;28;20500;-86
2024/03/30 06:00:11;;;;;;;11.20;4.70;;;11.10;99.90;;;;;;5043513;28;20506;-84
2024/03/30 06:02:37;;;;;;;14.00;5.57;;;11.00;99.90;;;;;;5028524;28;20521;-84
2024/03/30 06:05:05;;;;;;;13.20;4.13;;;11.00;99.90;;;;;;5027015;28;20472;-85
2024/03/30 06:07:33;;;;;;;20.63;5.90;;;11.20;99.90;;;;;;5044468;28;20459;-83
2024/03/30 06:10:00;;;;;;;11.17;4.73;;;11.20;99.90;;;;;;5044003;28;21341;-85
2024/03/30 06:12:26;;;;;;;15.63;4.27;;;11.30;99.90;;;;;;5046294;28;20454;-84
2024/03/30 06:14:54;;;;;;;13.10;4.50;;;11.40;99.90;;;;;;5043183;28;20490;-85
2024/03/30 06:17:20;;;;;;;17.73;5.43;;;11.50;99.90;;;;;;5046865;28;20468;-86
2024/03/30 06:19:47;;;;;;;13.40;6.40;;;11.50;99.90;;;;;;5040966;28;20940;-86
2024/03/30 06:22:14;;;;;;;13.77;4.87;;;11.60;99.90;;;;;;5046284;28;20486;-85
2024/03/30 06:24:42;;;;;;;17.07;4.83;;;11.60;99.90;;;;;;5042135;28;20467;-87
2024/03/30 06:27:10;;;;;;;17.23;5.53;;;11.70;99.90;;;;;;5043436;28;21077;-84
2024/03/30 06:29:38;;;;;;;16.50;7.50;;;11.80;99.90;;;;;;5041950;28;20513;-85
2024/03/30 06:32:06;;;;;;;11.53;4.97;;;11.90;99.90;;;;;;5043105;28;20455;-85
2024/03/30 06:34:33;;;;;;;16.40;4.90;;;11.90;99.90;;;;;;5043739;28;20539;-83
2024/03/30 06:37:00;;;;;;;11.93;4.13;;;11.90;99.90;;;;;;5044624;28;20500;-84
2024/03/30 06:43:40;;;;;;;17.00;5.00;;;11.90;99.90;;;;;;5042684;28;20659;-86
2024/03/30 06:45:01;;;;;;;17.70;4.70;;;11.90;99.90;;;;;;5036865;28;20645;-85
2024/03/30 06:47:29;;;;;;;14.30;4.80;;;12.00;99.90;;;;;;5039237;28;20483;-85
2024/03/30 06:49:56;;;;;;;13.60;4.67;;;12.10;99.90;;;;;;5043771;28;20458;-85
2024/03/30 06:52:22;;;;;;;15.00;3.77;;;12.10;99.90;;;;;;5027331;28;20477;-85
2024/03/30 06:54:49;;;;;;;11.80;3.80;;;12.10;99.90;;;;;;5043013;28;20570;-86
2024/03/30 06:57:17;;;;;;;11.97;5.53;;;12.30;99.90;;;;;;5044846;28;20469;-85
2024/03/30 06:59:46;;;;;;;12.80;4.07;;;12.40;99.90;;;;;;5026300;28;20492;-86
2024/03/30 07:02:12;;;;;;;13.60;4.70;;;12.50;99.90;;;;;;5045417;28;20445;-85
2024/03/30 07:04:39;;;;;;;20.53;4.83;;;12.60;99.90;;;;;;5025730;28;20986;-85
2024/03/30 07:07:06;;;;;;;18.67;4.03;;;12.70;99.90;;;;;;5046696;28;20473;-84
2024/03/30 07:09:33;;;;;;;22.10;3.93;;;12.80;99.90;;;;;;5041513;28;20450;-84
2024/03/30 07:11:59;;;;;;;22.93;4.97;;;12.80;99.90;;;;;;5030581;28;20823;-84
2024/03/30 07:14:28;;;;;;;14.80;3.83;;;12.90;99.90;;;;;;5045846;28;20459;-84
2024/03/30 07:16:55;;;;;;;11.00;2.87;;;12.90;99.90;;;;;;5043865;28;20471;-86
2024/03/30 07:19:23;;;;;;;8.63;4.40;;;12.90;99.90;;;;;;5046688;28;20480;-83
2024/03/30 07:21:49;;;;;;;11.27;3.67;;;12.90;99.90;;;;;;5025724;28;20542;-85
2024/03/30 07:24:17;;;;;;;11.03;3.13;;;13.00;99.90;;;;;;5044748;28;20559;-85
2024/03/30 07:26:44;;;;;;;11.27;3.10;;;13.00;99.80;;;;;;5038158;28;20480;-84
2024/03/30 07:29:11;;;;;;;11.33;3.93;;;13.00;97.80;;;;;;5045967;28;20450;-85
2024/03/30 07:31:39;;;;;;;15.33;4.13;;;13.00;98.80;;;;;;5043495;28;20524;-85
2024/03/30 07:34:06;;;;;;;14.27;3.23;;;13.00;99.90;;;;;;5041216;28;20636;-85
2024/03/30 07:36:33;;;;;;;19.00;3.70;;;13.10;99.90;;;;;;5038372;28;20562;-84
2024/03/30 07:39:00;;;;;;;12.43;3.87;;;13.10;99.80;;;;;;5037866;28;20446;-83
2024/03/30 07:41:27;;;;;;;16.97;2.90;;;13.10;99.90;;;;;;5036280;28;20981;-83
2024/03/30 07:43:53;;;;;;;21.43;7.03;;;13.10;99.90;;;;;;5037290;28;21020;-83
2024/03/30 07:46:20;;;;;;;16.57;5.23;;;13.10;99.90;;;;;;5034047;28;20945;-84
2024/03/30 07:48:48;;;;;;;12.83;3.67;;;13.10;99.90;;;;;;5036062;28;20492;-83
2024/03/30 07:51:15;;;;;;;10.30;3.20;;;13.10;99.90;;;;;;5033961;28;20448;-82
2024/03/30 07:53:41;;;;;;;11.43;4.43;;;13.10;99.90;;;;;;5038205;28;20508;-86
2024/03/30 07:56:08;;;;;;;11.50;3.80;;;13.00;99.90;;;;;;5041725;28;20462;-83
2024/03/30 07:58:34;;;;;;;15.93;5.27;;;13.10;99.90;;;;;;5045681;28;20460;-84
2024/03/30 08:01:02;;;;;;;13.27;6.70;;;13.00;99.90;;;;;;5044975;28;20472;-82
2024/03/30 08:03:28;;;;;;;13.83;4.87;;;13.00;99.90;;;;;;5033190;28;20472;-87
2024/03/30 08:05:59;;;;;;;15.77;6.33;;;13.00;99.90;;;;;;5051344;28;20477;-84
2024/03/30 08:08:25;;;;;;;15.00;5.40;;;13.00;99.90;;;;;;5050161;28;20516;-88
2024/03/30 08:10:53;;;;;;;15.87;5.60;;;12.90;99.90;;;;;;5049187;28;20456;-89
2024/03/30 08:13:19;;;;;;;18.83;6.70;;;12.90;99.90;;;;;;5049036;28;20966;-86
2024/03/30 08:15:47;;;;;;;25.50;9.33;;;12.80;99.90;;;;;;5045735;28;20510;-88
2024/03/30 08:18:14;;;;;;;9.07;4.97;;;12.80;99.90;;;;;;5052012;28;20535;-85
2024/03/30 08:20:41;;;;;;;13.63;5.20;;;12.80;99.90;;;;;;5047658;28;20551;-83
2024/03/30 08:23:08;;;;;;;13.53;5.37;;;12.80;99.90;;;;;;5037330;28;20451;-87
2024/03/30 08:25:36;;;;;;;10.77;4.33;;;12.70;99.90;;;;;;5045556;28;20481;-82
2024/03/30 08:28:02;;;;;;;13.97;5.13;;;12.70;99.90;;;;;;5042847;28;20980;-84
2024/03/30 08:30:30;;;;;;;14.57;6.07;;;12.60;99.90;;;;;;5042623;28;20828;-86
2024/03/30 08:32:57;;;;;;;20.30;5.17;;;12.60;99.90;;;;;;5050694;28;20450;-85
2024/03/30 08:35:24;;;;;;;14.90;6.55;;;12.60;99.90;;;;;;5042013;28;20455;-83
2024/03/30 08:37:51;;;;;;;14.03;5.70;;;12.60;99.90;;;;;;5047215;28;20239;-83
2024/03/30 08:40:19;;;;;;;10.70;5.73;;;12.70;99.90;;;;;;5046820;28;20450;-82
2024/03/30 08:42:45;;;;;;;14.97;5.73;;;12.80;99.90;;;;;;5046891;28;20490;-86
2024/03/30 08:45:13;;;;;;;12.20;5.30;;;12.80;99.90;;;;;;5043718;28;20633;-85
2024/03/30 08:47:39;;;;;;;17.17;7.03;;;12.80;99.90;;;;;;5051194;28;20474;-85
2024/03/30 08:50:06;;;;;;;16.17;5.40;;;12.80;99.90;;;;;;5046208;28;20474;-85
2024/03/30 08:52:32;;;;;;;10.43;4.83;;;12.80;99.90;;;;;;5047552;28;20488;-82
2024/03/30 08:55:00;;;;;;;11.67;5.10;;;12.70;99.90;;;;;;5046438;28;20468;-81
2024/03/30 08:57:27;;;;;;;10.10;5.80;;;12.70;99.90;;;;;;5044932;28;20465;-83
2024/03/30 08:59:55;;;;;;;12.00;5.30;;;12.70;99.90;;;;;;5043509;28;20463;-84
2024/03/30 09:02:21;;;;;;;12.32;6.15;;;12.70;99.90;;;;;;5045709;28;20441;-82
2024/03/30 09:04:49;;;;;;;12.30;4.90;;;12.70;99.90;;;;;;5045342;28;20219;-86
2024/03/30 09:07:15;;;;;;;17.03;4.53;;;12.60;99.90;;;;;;5042711;28;20826;-83
2024/03/30 09:09:43;;;;;;;16.80;4.83;;;12.60;99.90;;;;;;5037848;28;20878;-88
2024/03/30 09:12:09;;;;;;;17.33;5.27;;;12.50;99.90;;;;;;5040094;28;21278;-85
2024/03/30 09:14:38;;;;;;;13.53;6.57;;;12.50;99.90;;;;;;5041589;28;20473;-87
2024/03/30 09:17:05;;;;;;;17.50;4.67;;;12.50;99.90;;;;;;5044824;28;20472;-85
2024/03/30 09:19:32;;;;;;;18.07;7.93;;;12.50;99.90;;;;;;5044127;28;20988;-87
2024/03/30 09:21:59;;;;;;;14.10;5.00;;;12.60;99.90;;;;;;5030453;28;20457;-84
2024/03/30 09:24:26;;;;;;;21.20;5.03;;;12.70;99.90;;;;;;5044472;28;20508;-85
2024/03/30 09:26:52;;;;;;;19.17;4.20;;;12.70;99.90;;;;;;5045601;28;20572;-87
2024/03/30 09:29:19;;;;;;;18.97;5.77;;;12.80;99.90;;;;;;5050059;28;20488;-82
2024/03/30 09:31:47;;;;;;;11.15;4.43;;;12.80;99.90;;;;;;5049290;28;20443;-84
2024/03/30 09:34:14;;;;;;;10.80;4.37;;;12.80;99.90;;;;;;5045065;28;20721;-85
2024/03/30 09:36:40;;;;;;;21.10;6.10;;;12.80;99.90;;;;;;5047680;28;20512;-84
2024/03/30 09:39:08;;;;;;;17.60;5.17;;;12.80;99.90;;;;;;5045752;28;20470;-86
2024/03/30 09:41:46;;;;;;;16.60;5.80;;;12.90;99.90;;;;;;5050561;28;20486;-85
2024/03/30 09:44:13;;;;;;;13.67;5.47;;;12.90;99.90;;;;;;5034888;28;20582;-84
2024/03/30 09:46:42;;;;;;;15.60;5.23;;;12.90;99.90;;;;;;5048529;28;20471;-84
2024/03/30 09:49:13;;;;;;;12.67;5.13;;;12.90;99.90;;;;;;5033395;28;20451;-85
2024/03/30 09:51:42;;;;;;;16.40;5.40;;;12.90;99.90;;;;;;5049885;28;20488;-84
2024/03/30 09:54:09;;;;;;;16.93;6.30;;;13.00;99.90;;;;;;5045915;28;20546;-83
2024/03/30 09:56:39;;;;;;;10.63;5.57;;;13.00;99.90;;;;;;5030947;28;20528;-83
2024/03/30 09:59:07;;;;;;;14.97;5.63;;;13.00;99.90;;;;;;5048194;28;20454;-84
2024/03/30 10:01:33;;;;;;;29.37;6.03;;;13.00;99.90;;;;;;5046552;28;20474;-85
2024/03/30 10:04:00;;;;;;;18.63;6.43;;;13.00;99.90;;;;;;5050020;28;20442;-84
2024/03/30 10:06:29;;;;;;;19.75;6.88;;;13.00;99.90;;;;;;5051149;28;20451;-83
2024/03/30 10:09:02;;;;;;;15.27;6.70;;;13.00;99.90;;;;;;5046125;28;20211;-85
2024/03/30 10:11:31;;;;;;;11.07;5.73;;;13.10;99.90;;;;;;5062462;28;21094;-84
2024/03/30 10:14:05;;;;;;;17.50;6.00;;;13.10;99.90;;;;;;5046838;28;20557;-85
2024/03/30 10:16:32;;;;;;;16.80;7.87;;;13.10;99.90;;;;;;5050295;28;20516;-83
2024/03/30 10:19:00;;;;;;;12.50;6.27;;;13.10;99.90;;;;;;5040615;28;20467;-85
2024/03/30 10:21:28;;;;;;;13.57;6.10;;;13.10;99.90;;;;;;5046537;28;20459;-84
2024/03/30 10:23:57;;;;;;;15.40;6.30;;;13.10;99.90;;;;;;5046880;28;20495;-85
2024/03/30 10:26:24;;;;;;;12.97;5.53;;;13.10;99.90;;;;;;5050658;28;20472;-86
2024/03/30 10:28:51;;;;;;;14.63;5.53;;;13.20;99.90;;;;;;5048812;28;20569;-84
2024/03/30 10:31:17;;;;;;;16.70;6.53;;;13.20;99.90;;;;;;5033205;28;20924;-84
2024/03/30 10:33:45;;;;;;;19.20;7.00;;;13.20;99.90;;;;;;5046631;28;20449;-84
2024/03/30 10:36:11;;;;;;;17.07;7.17;;;13.10;99.90;;;;;;5045887;28;20437;-81
2024/03/30 10:38:40;;;;;;;14.70;6.23;;;13.20;99.90;;;;;;5042703;28;21309;-82
2024/03/30 10:41:06;;;;;;;13.53;5.90;;;13.20;99.90;;;;;;5063436;28;20466;-83
2024/03/30 10:43:35;;;;;;;28.07;7.80;;;13.20;99.90;;;;;;5031185;28;20482;-82
2024/03/30 10:46:02;;;;;;;20.50;9.00;;;13.20;99.90;;;;;;5043990;28;20484;-81
2024/03/30 10:48:29;;;;;;;14.97;7.77;;;13.30;99.90;;;;;;5045157;28;20479;-82
2024/03/30 10:50:56;;;;;;;29.93;7.77;;;13.30;99.90;;;;;;5044462;28;20457;-85
2024/03/30 10:53:24;;;;;;;27.03;7.40;;;13.30;99.90;;;;;;5045767;28;20493;-82
2024/03/30 10:55:52;;;;;;;15.37;6.50;;;13.40;99.90;;;;;;5047085;28;20466;-83
2024/03/30 10:58:19;;;;;;;18.10;7.50;;;13.40;99.90;;;;;;5046868;28;20470;-80
2024/03/30 11:00:46;;;;;;;14.33;6.63;;;13.40;99.90;;;;;;5043288;28;21011;-83
2024/03/30 11:03:17;;;;;;;16.77;5.97;;;13.40;99.90;;;;;;5046366;28;20928;-81
2024/03/30 11:05:43;;;;;;;14.73;6.40;;;13.40;99.90;;;;;;5042213;28;20471;-81
2024/03/30 11:08:11;;;;;;;13.43;6.27;;;13.40;99.90;;;;;;5039345;28;21078;-82
2024/03/30 11:10:37;;;;;;;17.17;7.57;;;13.40;99.90;;;;;;5018884;28;20468;-82
2024/03/30 11:13:06;;;;;;;15.40;6.37;;;13.40;99.90;;;;;;5038855;28;20492;-83
2024/03/30 11:15:36;;;;;;;13.47;5.60;;;13.50;99.90;;;;;;5043413;28;21163;-84
2024/03/30 11:18:06;;;;;;;18.97;7.20;;;13.50;99.90;;;;;;5047852;28;20478;-80
2024/03/30 11:20:43;;;;;;;17.27;7.87;;;13.60;99.90;;;;;;5044129;28;20452;-82
2024/03/30 11:23:21;;;;;;;27.73;9.80;;;13.50;99.90;;;;;;5048574;28;20494;-81
2024/03/30 11:25:50;;;;;;;18.60;6.53;;;13.50;99.90;;;;;;5046554;28;20485;-81
2024/03/30 11:28:27;;;;;;;17.67;6.90;;;13.60;99.90;;;;;;5045620;28;20467;-81
2024/03/30 11:31:03;;;;;;;22.43;8.70;;;13.50;99.90;;;;;;5040000;28;20459;-83
2024/03/30 11:33:39;;;;;;;17.60;8.23;;;13.60;99.90;;;;;;5043225;28;20471;-82
2024/03/30 11:36:14;;;;;;;12.47;7.03;;;13.60;99.90;;;;;;5046493;28;20479;-80
2024/03/30 11:38:46;;;;;;;23.73;8.30;;;13.70;99.90;;;;;;5043326;28;20503;-81
2024/03/30 11:41:15;;;;;;;16.13;8.70;;;13.70;99.90;;;;;;5041986;28;20467;-83
2024/03/30 11:43:52;;;;;;;20.40;12.27;;;13.70;99.90;;;;;;5048254;28;20470;-81
2024/03/30 11:46:19;;;;;;;16.60;8.33;;;13.70;99.90;;;;;;5049244;28;20512;-83
2024/03/30 11:48:47;;;;;;;18.17;8.23;;;13.80;99.90;;;;;;5049175;28;20463;-83
2024/03/30 11:51:17;;;;;;;18.33;9.63;;;13.80;99.90;;;;;;5046199;28;20468;-83
2024/03/30 11:53:44;;;;;;;19.13;8.37;;;13.80;99.90;;;;;;5035271;28;20484;-83
2024/03/30 11:56:12;;;;;;;23.37;8.07;;;13.80;99.90;;;;;;5048077;28;20482;-82
2024/03/30 11:58:41;;;;;;;18.57;7.50;;;13.80;99.90;;;;;;5051222;28;20506;-81
2024/03/30 12:01:12;;;;;;;21.03;8.10;;;13.80;99.90;;;;;;5047344;28;20486;-80
2024/03/30 12:03:41;;;;;;;16.67;8.40;;;13.90;99.90;;;;;;5048719;28;20497;-83
2024/03/30 12:06:18;;;;;;;18.43;8.20;;;13.90;99.90;;;;;;5046190;28;20469;-81
2024/03/30 12:08:45;;;;;;;18.80;7.20;;;13.90;99.90;;;;;;5043149;28;20456;-80
2024/03/30 12:11:15;;;;;;;18.90;8.23;;;14.00;99.90;;;;;;5046965;28;20460;-81
2024/03/30 12:13:43;;;;;;;21.97;7.70;;;14.00;99.90;;;;;;5051187;28;20499;-82
2024/03/30 12:16:11;;;;;;;16.97;6.90;;;14.00;99.90;;;;;;5040243;28;20464;-82
2024/03/30 12:18:38;;;;;;;21.70;9.33;;;14.00;99.90;;;;;;5040452;28;20478;-83
2024/03/30 12:21:05;;;;;;;20.90;8.20;;;14.10;99.90;;;;;;5045728;28;20463;-81
2024/03/30 12:23:34;;;;;;;20.57;7.07;;;14.10;99.90;;;;;;5046071;28;20483;-79
2024/03/30 12:26:01;;;;;;;17.07;6.57;;;14.10;99.90;;;;;;5042496;28;20578;-79
2024/03/30 12:28:28;;;;;;;25.30;8.20;;;14.10;99.90;;;;;;5047454;28;20629;-81
2024/03/30 12:30:56;;;;;;;27.33;8.40;;;14.10;99.90;;;;;;5045000;28;20540;-81
2024/03/30 12:33:25;;;;;;;26.30;8.90;;;14.10;99.90;;;;;;5045019;28;20447;-84
2024/03/30 12:35:52;;;;;;;22.53;7.93;;;14.10;99.90;;;;;;5042942;28;20464;-81
2024/03/30 12:38:21;;;;;;;18.50;6.30;;;14.10;99.90;;;;;;5028938;28;20521;-80
2024/03/30 12:40:47;;;;;;;25.43;9.00;;;14.10;99.90;;;;;;5042674;28;20487;-84
2024/03/30 12:43:14;;;;;;;30.20;10.50;;;14.20;99.90;;;;;;5027814;28;20478;-85